Boyd Deep Canyon Reserve, California Weather observations

Data are for 10 minute period ending at time listed.
 Day   Time   Solar   Ave.   Ave.  Ave.  Vector  Max.   Baro.   Total    
  of    of     Rad.   Air    Rel.  Wind   Wind   Wind  Press.  Precip.   
Year   Day            Temp.  Hum.  Speed  Dir.   Gust                    
2017   (PST)  Kw/m2    F      %     mph   deg.    mph    mb.     in.     
-------------------------------------------------------------------------
  54    0:00   0.00   52.1    47    3.8    32     8.4   406.2    0.00 
  54    0:10   0.00   52.3    46    2.3    60     5.8   406.2    0.00 
  54    0:20   0.00   52.3    45    4.5   228     9.6   406.1    0.00 
  54    0:30   0.00   52.9    42    3.6   266    10.9   405.6    0.00 
  54    0:40   0.00   53.3    41    5.0   239    11.5   405.6    0.00 
  54    0:50   0.00   52.2    44    1.8   243     9.4   405.7    0.00 
  54    1:00   0.00   53.0    41    4.2   222    10.1   405.5    0.00 
  54    1:10   0.00   51.8    45    4.7    44     8.0   405.7    0.00 
  54    1:20   0.00   52.0    44    4.7   256     9.8   405.7    0.00 
  54    1:30   0.00   51.9    44    3.4    90     8.5   405.8    0.00 
  54    1:40   0.00   51.8    44    5.2    88    10.2   405.7    0.00 
  54    1:50   0.00   52.2    43    3.5   142     8.2   405.6    0.00 
  54    2:00   0.00   51.8    44    4.7    78     9.9   405.6    0.00 
  54    2:10   0.00   53.3    40    8.2    79    13.2   405.3    0.00 
  54    2:20   0.00   53.0    41    6.9    83    13.4   405.5    0.00 
  54    2:30   0.00   52.8    40    6.8   123    13.5   405.3    0.00 
  54    2:40   0.00   53.2    38    4.5   131    11.0   405.1    0.00 
  54    2:50   0.00   53.2    37    7.2   106    15.3   405.1    0.00 
  54    3:00   0.00   54.2    32    7.2   139    13.7   404.4    0.00 
  54    3:10   0.00   53.2    40    9.7   143    19.6   405.2    0.00 
  54    3:20   0.00   52.5    42    6.2   106    16.3   405.5    0.00 
  54    3:30   0.00   52.9    38    7.8    87    17.7   405.0    0.00 
  54    3:40   0.00   52.7    40    7.0    90    14.2   405.2    0.00 
  54    3:50   0.00   51.4    45    6.9    76    11.4   405.6    0.00 
  54    4:00   0.00   51.7    42    3.8   112    10.0   405.2    0.00 
  54    4:10   0.00   51.5    43    2.6   167     9.6   405.2    0.00 
  54    4:20   0.00   50.4    48    6.2    63     8.6   405.6    0.00 
  54    4:30   0.00   48.4    55    2.4    62     6.5   406.0    0.00 
  54    4:40   0.00   47.2    59    0.2   331     1.5   406.3    0.00 
  54    4:50   0.00   47.0    58    0.5   252     2.3   406.2    0.00 
  54    5:00   0.00   47.1    59    0.2     2     2.6   406.4    0.00 
  54    5:10   0.00   45.9    62    0.9   357     2.3   406.6    0.00 
  54    5:20   0.00   45.4    64    1.0   185     2.1   406.6    0.00 
  54    5:30   0.00   45.3    64    0.4   180     2.0   406.6    0.00 
  54    5:40   0.00   45.4    64    2.1   181     3.6   406.6    0.00 
  54    5:50   0.00   46.1    61    0.6    56     2.7   406.4    0.00 
  54    6:00   0.00   45.6    63    1.1   236     2.9   406.6    0.00 
  54    6:10   0.00   45.1    64    0.7   211     3.5   406.6    0.00 
  54    6:20   0.00   45.8    61    2.9   137     4.4   406.4    0.00 
  54    6:30   0.00   45.3    63    2.7   172     4.4   406.4    0.00 
  54    6:40   0.01   46.7    57    2.3   123     4.2   405.9    0.00 
  54    6:50   0.02   47.8    53    2.5   122     4.4   405.7    0.00 
  54    7:00   0.08   47.5    58    1.2     8     3.3   406.3    0.00 
  54    7:10   0.11   47.6    57    1.6   202     2.6   406.3    0.00 
  54    7:20   0.15   48.5    56    2.2   179     3.3   406.4    0.00 
  54    7:30   0.18   51.3    48    0.9   133     3.7   406.0    0.00 
  54    7:40   0.22   51.9    49    0.0   170     0.4   406.5    0.00 
  54    7:50   0.25   54.5    44    0.0   174     0.4   406.6    0.00 
  54    8:00   0.29   55.1    42    0.5   180     1.6   406.4    0.00 
  54    8:10   0.32   54.8    40    1.2   358     3.9   406.1    0.00 
  54    8:20   0.36   54.8    39    0.9   335     2.8   405.8    0.00 
  54    8:30   0.39   54.0    41    1.9    31     5.0   405.9    0.00 
  54    8:40   0.42   54.0    40    1.7   354     4.5   405.7    0.00 
  54    8:50   0.45   54.3    41    2.5     4     5.6   406.0    0.00 
  54    9:00   0.48   54.1    41    3.9   340     6.6   405.9    0.00 
  54    9:10   0.51   54.0    41    3.6   349     5.5   405.8    0.00 
  54    9:20   0.54   54.8    40    2.3   346     5.5   405.9    0.00 
  54    9:30   0.57   55.8    38    2.0   350     6.1   406.1    0.00 
  54    9:40   0.59   55.4    39    3.0   352     5.6   406.1    0.00 
  54    9:50   0.62   55.1    39    4.9     2     8.8   406.0    0.00 
  54   10:00   0.64   55.5    39    5.2   351     8.5   406.1    0.00 
  54   10:10   0.66   55.6    38    5.8   345     9.5   406.0    0.00 
  54   10:20   0.68   56.0    37    4.7   358     8.8   406.0    0.00 
  54   10:30   0.69   57.1    35    3.3   348     6.6   406.1    0.00 
  54   10:40   0.71   56.9    34    4.0   358     8.8   405.9    0.00 
  54   10:50   0.72   57.0    34    4.2    20     8.2   405.9    0.00 
  54   11:00   0.74   57.5    33    4.0   358     8.4   406.0    0.00 
  54   11:10   0.75   57.8    33    4.9   332     9.2   406.1    0.00 
  54   11:20   0.75   58.2    33    5.7   356     9.3   406.2    0.00 
  54   11:30   0.76   58.1    32    5.0   355     9.2   406.1    0.00 
  54   11:40   0.77   58.4    32    2.6     4     6.9   406.0    0.00 
  54   11:50   0.77   58.5    31    4.3   138     8.0   406.0    0.00 
  54   12:00   0.77   59.2    30    2.3   159     5.7   406.1    0.00 
  54   12:10   0.77   59.8    30    2.7    56     9.5   406.3    0.00 
  54   12:20   0.77   59.5    30    2.1   112     4.7   406.2    0.00 
  54   12:30   0.74   60.0    30    3.6   109     9.4   406.3    0.00 
  54   12:40   0.76   60.4    29    1.7   116     7.5   406.3    0.00 
  54   12:50   0.75   59.9    29    5.5    44     8.8   406.3    0.00 
  54   13:00   0.74   59.4    29    4.3    59     7.1   406.0    0.00 
  54   13:10   0.73   59.6    30    3.9    62     8.8   406.1    0.00 
  54   13:20   0.72   59.8    28    5.5    10    10.3   406.0    0.00 
  54   13:30   0.70   60.2    28    5.2   348     9.1   406.0    0.00 
  54   13:40   0.69   60.2    27    5.7     2    11.7   406.0    0.00 
  54   13:50   0.67   60.2    27    6.1   353    11.4   405.8    0.00 
  54   14:00   0.65   60.5    26    4.3   353     9.8   405.9    0.00 
  54   14:10   0.63   60.9    27    5.5   353     9.3   406.1    0.00 
  54   14:20   0.60   61.0    26    4.3     6     9.5   406.1    0.00 
  54   14:30   0.57   60.8    26    7.0    14    10.8   406.0    0.00 
  54   14:40   0.55   60.5    26    2.8    43     9.8   405.9    0.00 
  54   14:50   0.52   61.1    25    4.9   356     9.4   406.0    0.00 
  54   15:00   0.49   61.2    26    4.3    24     9.8   406.0    0.00 
  54   15:10   0.46   61.2    25    4.4     7     7.5   406.1    0.00 
  54   15:20   0.43   61.0    25    5.0   355    10.2   405.8    0.00 
  54   15:30   0.40   61.1    24    5.0   351     8.6   405.9    0.00 
  54   15:40   0.37   61.0    24    4.9    15     8.2   405.8    0.00 
  54   15:50   0.33   61.0    24    2.7    11     7.5   405.7    0.00 
  54   16:00   0.30   61.3    23    2.2   239     4.3   405.8    0.00 
  54   16:10   0.26   61.8    22    2.7     6     5.5   405.9    0.00 
  54   16:20   0.23   60.6    24    3.3    64     5.6   405.5    0.00 
  54   16:30   0.05   60.0    23    2.5    22     5.2   405.3    0.00 
  54   16:40   0.03   58.9    25    3.4    57     5.8   405.1    0.00 
  54   16:50   0.03   58.8    26    4.1   148    12.7   405.3    0.00 
  54   17:00   0.02   58.1    31   11.3   180    21.7   405.9    0.00 
  54   17:10   0.01   57.5    32   12.0   192    28.3   405.9    0.00 
  54   17:20   0.01   57.1    32   13.7   197    22.5   405.7    0.00 
  54   17:30   0.01   56.9    32   11.6   191    23.6   405.6    0.00 
  54   17:40   0.00   56.3    34   12.5   173    21.4   405.6    0.00 
  54   17:50   0.00   55.9    34   12.0   180    19.5   405.6    0.00 
  54   18:00   0.00   55.5    35   10.0   182    17.7   405.5    0.00 
  54   18:10   0.00   55.3    35   11.6   181    17.4   405.4    0.00 
  54   18:20   0.00   55.1    35   10.7   185    15.1   405.5    0.00 
  54   18:30   0.00   54.7    36   10.3   178    16.5   405.5    0.00 
  54   18:40   0.00   54.5    36   11.2   175    16.5   405.4    0.00 
  54   18:50   0.00   54.4    36   12.2   168    17.8   405.2    0.00 
  54   19:00   0.00   54.2    36   12.1   174    18.4   405.2    0.00 
  54   19:10   0.00   54.0    36   12.8   176    18.4   405.2    0.00 
  54   19:20   0.00   53.8    36   14.1   176    22.4   405.1    0.00 
  54   19:30   0.00   53.6    36   13.3   176    18.9   405.0    0.00 
  54   19:40   0.00   53.6    36   12.7   174    16.0   404.9    0.00 
  54   19:50   0.00   53.6    36   11.7   175    16.0   404.9    0.00 
  54   20:00   0.00   53.6    36   10.5   175    15.5   404.9    0.00 
  54   20:10   0.00   53.6    35   10.3   176    14.8   404.8    0.00 
  54   20:20   0.00   53.5    35   10.8   176    13.9   404.6    0.00 

Return to Boyd Deep Canyon Reserve graphs page.


Western Regional Climate Center,wrcc@dri.edu